Time;durP1;ratioP1;P1;durP2;ratioP2;P2;SDS_P1;SDS_P2;PMS_P1;PMS_P2;Temp;Humidity;BMP_temperature;BMP_pressure;BME280_temperature;BME280_humidity;BME280_pressure;Samples;Min_cycle;Max_cycle;Signal;HPM_P1;HPM_P2
2024/03/18 00:00:31;;;;;;;2.65;2.10;;;;;;;;;;5053576;28;20068;-65
2024/03/18 00:02:57;;;;;;;3.40;2.10;;;;;;;;;;5052430;28;20116;-60
2024/03/18 00:05:23;;;;;;;3.28;2.13;;;;;;;;;;5063339;23;20462;-65
2024/03/18 00:07:52;;;;;;;3.95;2.17;;;;;;;;;;5053848;28;20084;-66
2024/03/18 00:10:17;;;;;;;3.10;2.13;;;;;;;;;;5035904;28;20040;-66
2024/03/18 00:12:43;;;;;;;2.72;1.92;;;;;;;;;;5052337;28;20037;-66
2024/03/18 00:15:10;;;;;;;4.20;2.22;;;;;;;;;;5054087;28;20033;-65
2024/03/18 00:17:36;;;;;;;3.47;2.30;;;;;;;;;;5053781;28;20029;-65
2024/03/18 00:20:05;;;;;;;2.20;2.00;;;;;;;;;;5053323;28;20037;-65
2024/03/18 00:22:30;;;;;;;3.38;2.00;;;;;;;;;;5053675;28;20027;-65
2024/03/18 00:24:56;;;;;;;2.92;2.10;;;;;;;;;;5052788;28;20025;-65
2024/03/18 00:27:21;;;;;;;2.47;2.28;;;;;;;;;;5053391;28;20041;-66
2024/03/18 00:29:46;;;;;;;2.00;1.80;;;;;;;;;;5053904;28;20040;-67
2024/03/18 00:32:12;;;;;;;2.00;1.80;;;;;;;;;;5053342;28;20033;-66
2024/03/18 00:34:37;;;;;;;2.65;1.58;;;;;;;;;;5053626;28;20115;-67
2024/03/18 00:37:03;;;;;;;3.53;2.10;;;;;;;;;;5053548;28;20035;-67
2024/03/18 00:39:28;;;;;;;2.17;1.55;;;;;;;;;;5053717;28;20088;-65
2024/03/18 00:41:58;;;;;;;1.95;1.45;;;;;;;;;;5053486;28;20113;-65
2024/03/18 00:44:24;;;;;;;1.40;1.05;;;;;;;;;;5053733;28;20064;-66
2024/03/18 00:46:51;;;;;;;1.67;1.58;;;;;;;;;;5057426;28;20036;-67
2024/03/18 00:49:16;;;;;;;1.58;1.48;;;;;;;;;;5057032;28;20086;-67
2024/03/18 00:51:42;;;;;;;1.83;1.58;;;;;;;;;;5057587;28;20119;-65
2024/03/18 00:54:09;;;;;;;2.53;1.60;;;;;;;;;;5039158;28;20033;-66
2024/03/18 00:56:35;;;;;;;1.83;1.73;;;;;;;;;;5057264;28;20025;-67
2024/03/18 00:59:00;;;;;;;2.47;1.45;;;;;;;;;;5055608;28;20421;-66
2024/03/18 01:01:27;;;;;;;1.63;1.52;;;;;;;;;;5056936;28;20021;-66
2024/03/18 01:03:53;;;;;;;1.48;1.38;;;;;;;;;;5056828;28;20119;-67
2024/03/18 01:06:19;;;;;;;1.85;1.60;;;;;;;;;;5056693;28;20076;-67
2024/03/18 01:08:44;;;;;;;2.58;1.60;;;;;;;;;;5057300;28;20060;-67
2024/03/18 01:11:09;;;;;;;1.77;1.40;;;;;;;;;;5055412;28;20471;-66
2024/03/18 01:13:39;;;;;;;1.25;1.15;;;;;;;;;;5056963;28;20032;-67
2024/03/18 01:16:04;;;;;;;2.17;1.25;;;;;;;;;;5055350;28;20029;-67
2024/03/18 01:18:29;;;;;;;1.38;1.27;;;;;;;;;;5056543;28;20490;-67
2024/03/18 01:20:55;;;;;;;1.63;1.42;;;;;;;;;;5056439;28;20073;-65
2024/03/18 01:23:22;;;;;;;1.60;1.50;;;;;;;;;;5038600;28;20025;-65
2024/03/18 01:25:47;;;;;;;1.90;1.40;;;;;;;;;;5056670;28;20070;-65
2024/03/18 01:28:13;;;;;;;1.60;1.50;;;;;;;;;;5056674;28;20029;-65
2024/03/18 01:30:41;;;;;;;1.77;1.67;;;;;;;;;;5056865;28;20566;-65
2024/03/18 01:33:07;;;;;;;1.58;1.42;;;;;;;;;;5055011;28;20046;-65
2024/03/18 01:35:33;;;;;;;1.55;1.35;;;;;;;;;;5055346;28;20364;-64
2024/03/18 01:38:01;;;;;;;1.77;1.63;;;;;;;;;;5055553;28;20044;-64
2024/03/18 01:40:27;;;;;;;2.03;1.92;;;;;;;;;;5056633;28;20037;-64
2024/03/18 01:42:53;;;;;;;2.25;2.05;;;;;;;;;;5056406;28;20047;-64
2024/03/18 01:45:25;;;;;;;2.30;2.10;;;;;;;;;;5056563;28;20431;-66
2024/03/18 01:47:53;;;;;;;2.60;2.40;;;;;;;;;;5056530;28;20033;-66
2024/03/18 01:50:19;;;;;;;2.33;2.13;;;;;;;;;;5056260;28;20035;-66
2024/03/18 01:52:45;;;;;;;2.75;2.40;;;;;;;;;;5056211;28;20115;-67
2024/03/18 01:55:11;;;;;;;1.90;1.80;;;;;;;;;;5055341;28;20048;-67
2024/03/18 01:57:38;;;;;;;2.13;1.90;;;;;;;;;;5055646;28;20033;-67
2024/03/18 02:00:05;;;;;;;2.00;1.70;;;;;;;;;;5055976;28;20033;-67
2024/03/18 02:02:34;;;;;;;2.22;1.67;;;;;;;;;;5055742;28;20491;-66
2024/03/18 02:05:01;;;;;;;1.50;1.40;;;;;;;;;;5055545;28;20056;-66
2024/03/18 02:07:30;;;;;;;1.73;1.60;;;;;;;;;;5054381;28;20406;-67
2024/03/18 02:09:55;;;;;;;1.40;1.30;;;;;;;;;;5054710;28;20467;-66
2024/03/18 02:12:24;;;;;;;1.38;1.27;;;;;;;;;;5062705;23;20044;31
2024/03/18 02:14:51;;;;;;;1.10;1.10;;;;;;;;;;4990276;28;20043;-66
2024/03/18 02:17:20;;;;;;;1.50;1.20;;;;;;;;;;4975491;28;20082;-66
2024/03/18 02:19:46;;;;;;;1.58;1.23;;;;;;;;;;4991938;28;20039;-66
2024/03/18 02:22:11;;;;;;;1.08;1.08;;;;;;;;;;4975481;28;20057;-66
2024/03/18 02:24:36;;;;;;;0.80;0.80;;;;;;;;;;4976628;28;20030;-66
2024/03/18 02:27:08;;;;;;;0.93;0.80;;;;;;;;;;4976808;28;20030;-66
2024/03/18 02:29:34;;;;;;;1.17;0.80;;;;;;;;;;4975596;28;20118;-66
2024/03/18 02:31:59;;;;;;;1.10;1.00;;;;;;;;;;4976432;28;20085;-66
2024/03/18 02:34:25;;;;;;;1.50;1.17;;;;;;;;;;4976700;28;20461;-65
2024/03/18 02:36:52;;;;;;;1.10;1.10;;;;;;;;;;4976675;28;20042;-65
2024/03/18 02:39:17;;;;;;;1.02;0.90;;;;;;;;;;4976488;28;20031;-65
2024/03/18 02:41:43;;;;;;;1.17;1.10;;;;;;;;;;4976263;28;20018;-66
2024/03/18 02:44:11;;;;;;;1.60;1.10;;;;;;;;;;4976523;28;20047;-66
2024/03/18 02:46:37;;;;;;;1.10;1.05;;;;;;;;;;4976703;28;20458;-66
2024/03/18 02:49:03;;;;;;;1.05;0.95;;;;;;;;;;4974850;28;20015;-65
2024/03/18 02:51:28;;;;;;;0.98;0.82;;;;;;;;;;4976138;28;20074;-65
2024/03/18 02:53:54;;;;;;;1.10;0.70;;;;;;;;;;4976331;28;20500;-65
2024/03/18 02:56:19;;;;;;;0.80;0.80;;;;;;;;;;4976020;28;20022;-66
2024/03/18 02:58:44;;;;;;;0.77;0.73;;;;;;;;;;4975969;28;20363;-66
2024/03/18 03:01:10;;;;;;;1.05;1.00;;;;;;;;;;4974571;28;20074;-66
2024/03/18 03:03:36;;;;;;;1.17;1.00;;;;;;;;;;4975740;28;20026;-66
2024/03/18 03:06:04;;;;;;;1.00;1.00;;;;;;;;;;4975852;28;20539;-66
2024/03/18 03:08:30;;;;;;;1.00;0.90;;;;;;;;;;4974355;28;20386;-66
2024/03/18 03:10:55;;;;;;;1.30;1.15;;;;;;;;;;4974456;28;20035;-66
2024/03/18 03:13:21;;;;;;;1.02;1.02;;;;;;;;;;4975707;28;20062;-66
2024/03/18 03:15:46;;;;;;;1.52;1.30;;;;;;;;;;4974413;28;20054;-66
2024/03/18 03:18:13;;;;;;;1.13;1.13;;;;;;;;;;4975638;28;20390;-66
2024/03/18 03:20:39;;;;;;;1.30;1.20;;;;;;;;;;4975749;28;20038;-66
2024/03/18 03:23:04;;;;;;;1.55;1.45;;;;;;;;;;4975780;28;20027;-66
2024/03/18 03:25:30;;;;;;;1.63;1.52;;;;;;;;;;4975727;28;20035;-66
2024/03/18 03:27:57;;;;;;;1.58;1.45;;;;;;;;;;4974225;28;20057;-66
2024/03/18 03:30:22;;;;;;;2.30;2.10;;;;;;;;;;4975430;28;20041;-66
2024/03/18 03:32:48;;;;;;;2.20;2.00;;;;;;;;;;4974465;28;20035;-66
2024/03/18 03:35:13;;;;;;;2.17;2.08;;;;;;;;;;4975285;28;20054;-66
2024/03/18 03:37:39;;;;;;;2.50;2.30;;;;;;;;;;4975268;28;20490;-65
2024/03/18 03:40:04;;;;;;;2.40;2.22;;;;;;;;;;4975468;28;20429;-65
2024/03/18 03:42:30;;;;;;;2.65;2.40;;;;;;;;;;4973924;28;20031;-65
2024/03/18 03:44:55;;;;;;;2.00;1.90;;;;;;;;;;4975126;28;20058;-65
2024/03/18 03:47:21;;;;;;;2.30;2.20;;;;;;;;;;4975427;28;20110;-66
2024/03/18 03:49:46;;;;;;;2.50;2.30;;;;;;;;;;4975426;28;20041;-66
2024/03/18 03:52:12;;;;;;;2.67;2.47;;;;;;;;;;4990057;28;20030;-65
2024/03/18 03:54:37;;;;;;;2.63;2.42;;;;;;;;;;4975341;28;20027;-65
2024/03/18 03:57:02;;;;;;;2.70;2.50;;;;;;;;;;4975296;28;20030;-64
2024/03/18 03:59:28;;;;;;;2.30;2.10;;;;;;;;;;4974978;28;20033;-64
2024/03/18 04:01:56;;;;;;;2.50;2.30;;;;;;;;;;4975519;28;20038;-64
2024/03/18 04:04:23;;;;;;;2.17;2.08;;;;;;;;;;4975214;28;20565;-63
2024/03/18 04:06:48;;;;;;;2.70;2.22;;;;;;;;;;4974941;28;20030;-63
2024/03/18 04:09:15;;;;;;;2.20;2.00;;;;;;;;;;4974275;28;20042;-66
2024/03/18 04:11:40;;;;;;;2.33;2.17;;;;;;;;;;4973689;28;20086;-66
2024/03/18 04:14:06;;;;;;;2.00;1.90;;;;;;;;;;4974724;28;20055;-66
2024/03/18 04:16:31;;;;;;;2.60;2.22;;;;;;;;;;4975133;28;20046;-67
2024/03/18 04:18:56;;;;;;;2.17;2.05;;;;;;;;;;4975742;28;20110;-67
2024/03/18 04:21:23;;;;;;;2.40;2.00;;;;;;;;;;5031049;23;20503;-66
2024/03/18 04:23:53;;;;;;;1.83;1.73;;;;;;;;;;5038108;22;20054;-66
2024/03/18 04:26:18;;;;;;;1.80;1.70;;;;;;;;;;5037871;28;20515;-66
2024/03/18 04:28:44;;;;;;;2.30;1.90;;;;;;;;;;5037518;28;20053;-66
2024/03/18 04:31:11;;;;;;;1.75;1.65;;;;;;;;;;5037743;28;20483;-66
2024/03/18 04:33:40;;;;;;;2.58;2.03;;;;;;;;;;5019389;28;20045;-66
2024/03/18 04:36:09;;;;;;;2.20;2.00;;;;;;;;;;5004238;28;20030;-66
2024/03/18 04:38:34;;;;;;;1.90;1.80;;;;;;;;;;5037503;28;20037;-67
2024/03/18 04:40:59;;;;;;;3.13;1.80;;;;;;;;;;5037051;28;20044;-66
2024/03/18 04:43:25;;;;;;;2.50;1.60;;;;;;;;;;5036820;28;20721;-67
2024/03/18 04:45:51;;;;;;;1.85;1.75;;;;;;;;;;5037051;28;20048;-65
2024/03/18 04:48:17;;;;;;;2.13;1.77;;;;;;;;;;5036953;28;20432;-64
2024/03/18 04:50:42;;;;;;;1.85;1.75;;;;;;;;;;5019097;28;20119;-65
2024/03/18 04:53:08;;;;;;;2.00;1.60;;;;;;;;;;5019223;28;20045;-65
2024/03/18 04:55:34;;;;;;;2.03;1.83;;;;;;;;;;5037127;28;20034;-65
2024/03/18 04:57:59;;;;;;;2.00;1.90;;;;;;;;;;5037257;28;20109;-65
2024/03/18 05:00:26;;;;;;;1.90;1.80;;;;;;;;;;5037098;28;20109;-64
2024/03/18 05:02:51;;;;;;;2.20;2.10;;;;;;;;;;5019200;28;20027;-64
2024/03/18 05:05:17;;;;;;;1.73;1.63;;;;;;;;;;5037341;28;20463;-64
2024/03/18 05:07:43;;;;;;;1.60;1.50;;;;;;;;;;5036838;28;20125;-65
2024/03/18 05:10:10;;;;;;;1.92;1.70;;;;;;;;;;5036990;28;20037;-63
2024/03/18 05:12:35;;;;;;;2.08;1.98;;;;;;;;;;5002619;28;20391;-63
2024/03/18 05:15:01;;;;;;;2.00;1.80;;;;;;;;;;5036684;28;20037;-63
2024/03/18 05:17:26;;;;;;;2.45;1.77;;;;;;;;;;5036686;28;20033;-63
2024/03/18 05:19:52;;;;;;;1.95;1.85;;;;;;;;;;5036779;28;20061;-63
2024/03/18 05:22:18;;;;;;;1.90;1.70;;;;;;;;;;5018779;28;20049;-63
2024/03/18 05:24:43;;;;;;;2.05;1.70;;;;;;;;;;5018440;28;20076;-63
2024/03/18 05:27:12;;;;;;;2.30;2.10;;;;;;;;;;5036719;28;20053;-63
2024/03/18 05:29:38;;;;;;;1.75;1.65;;;;;;;;;;5036949;28;20029;-63
2024/03/18 05:32:08;;;;;;;1.85;1.75;;;;;;;;;;5036938;28;20470;-63
2024/03/18 05:34:35;;;;;;;2.03;1.92;;;;;;;;;;5036416;28;20040;-63
2024/03/18 05:37:01;;;;;;;4.05;2.25;;;;;;;;;;5036546;28;20025;-62
2024/03/18 05:39:27;;;;;;;2.13;2.03;;;;;;;;;;5018321;28;20499;-62
2024/03/18 05:41:52;;;;;;;3.45;2.97;;;;;;;;;;5002022;28;20029;-63
2024/03/18 05:44:18;;;;;;;2.05;1.95;;;;;;;;;;5036804;28;20156;-62
2024/03/18 05:46:43;;;;;;;1.83;1.73;;;;;;;;;;5035745;28;20079;-63
2024/03/18 05:49:09;;;;;;;2.00;1.80;;;;;;;;;;5035062;28;20091;-62
2024/03/18 05:51:35;;;;;;;2.55;1.83;;;;;;;;;;5036577;28;20030;-62
2024/03/18 05:54:03;;;;;;;2.03;1.73;;;;;;;;;;5035958;28;20080;-62
2024/03/18 05:56:28;;;;;;;2.00;1.90;;;;;;;;;;5017216;28;20052;-62
2024/03/18 05:58:54;;;;;;;1.70;1.60;;;;;;;;;;5034821;28;20033;-62
2024/03/18 06:01:20;;;;;;;6.85;4.82;;;;;;;;;;5034803;28;20026;-62
2024/03/18 06:03:45;;;;;;;7.55;3.90;;;;;;;;;;5034781;28;20096;-62
2024/03/18 06:06:11;;;;;;;7.80;3.60;;;;;;;;;;5034860;28;20033;-63
2024/03/18 06:08:37;;;;;;;3.05;2.10;;;;;;;;;;5034716;28;20197;-62
2024/03/18 06:11:02;;;;;;;5.05;3.17;;;;;;;;;;5036318;28;20033;-62
2024/03/18 06:13:28;;;;;;;8.52;4.68;;;;;;;;;;5036186;28;20022;-62
2024/03/18 06:15:54;;;;;;;3.88;2.90;;;;;;;;;;5018201;28;20037;-62
2024/03/18 06:18:20;;;;;;;3.25;1.90;;;;;;;;;;5017746;28;20029;-62
2024/03/18 06:20:50;;;;;;;26.20;15.43;;;;;;;;;;5035664;28;20040;-62
2024/03/18 06:23:22;;;;;;;4.00;3.20;;;;;;;;;;5017514;28;20084;-62
2024/03/18 06:26:03;;;;;;;2.58;2.38;;;;;;;;;;5035358;28;20026;-62
2024/03/18 06:28:28;;;;;;;;;;;;;;;;;;5035707;28;20033;-58
2024/03/18 06:30:55;;;;;;;10.52;5.30;;;;;;;;;;5035926;28;19909;-58
2024/03/18 06:33:21;;;;;;;8.30;3.97;;;;;;;;;;5035267;28;20040;-57
2024/03/18 06:35:47;;;;;;;9.68;4.22;;;;;;;;;;5034593;28;20026;-57
2024/03/18 06:38:12;;;;;;;18.42;6.97;;;;;;;;;;5034701;28;20373;-57
2024/03/18 06:40:41;;;;;;;12.70;3.95;;;;;;;;;;5033893;28;20489;-57
2024/03/18 06:43:07;;;;;;;6.07;3.00;;;;;;;;;;5033721;28;20017;-57
2024/03/18 06:45:36;;;;;;;3.25;2.25;;;;;;;;;;5034066;28;20050;-57
2024/03/18 06:48:03;;;;;;;1.80;1.70;;;;;;;;;;5033684;28;20100;-57
2024/03/18 06:50:29;;;;;;;1.77;1.42;;;;;;;;;;5033732;28;20029;-57
2024/03/18 06:52:55;;;;;;;1.38;1.27;;;;;;;;;;5033635;28;20383;-57
2024/03/18 06:55:20;;;;;;;1.92;1.45;;;;;;;;;;5034608;28;20029;-58
2024/03/18 06:57:45;;;;;;;8.32;3.80;;;;;;;;;;5035318;28;20042;-57
2024/03/18 07:00:11;;;;;;;2.72;1.90;;;;;;;;;;5035163;28;20041;-58
2024/03/18 07:02:36;;;;;;;4.53;2.75;;;;;;;;;;5063821;22;20060;-61
2024/03/18 07:05:34;;;;;;;3.00;2.42;;;;;;;;;;5072356;22;20139;-61
2024/03/18 07:08:03;;;;;;;12.88;7.47;;;;;;;;;;5072225;22;20056;31
2024/03/18 07:10:29;;;;;;;12.70;7.53;;;;;;;;;;4992590;28;20061;-57
2024/03/18 07:12:55;;;;;;;6.57;4.85;;;;;;;;;;4993961;28;20041;-58
2024/03/18 07:15:20;;;;;;;19.95;11.55;;;;;;;;;;4995585;28;20043;-58
2024/03/18 07:17:46;;;;;;;23.33;14.73;;;;;;;;;;4993826;28;20026;-58
2024/03/18 07:20:12;;;;;;;5.93;4.07;;;;;;;;;;4995485;28;20046;-57
2024/03/18 07:22:40;;;;;;;1.92;1.75;;;;;;;;;;4994956;28;20030;-57
2024/03/18 07:25:09;;;;;;;1.65;1.55;;;;;;;;;;4993674;28;20393;-58
2024/03/18 07:27:37;;;;;;;1.92;1.70;;;;;;;;;;4995154;28;20385;-57
2024/03/18 07:30:02;;;;;;;1.35;1.20;;;;;;;;;;4994835;28;20042;-57
2024/03/18 07:32:28;;;;;;;2.33;1.20;;;;;;;;;;4994870;28;20037;-57
2024/03/18 07:34:53;;;;;;;2.13;1.80;;;;;;;;;;4995075;28;20049;-57
2024/03/18 07:37:19;;;;;;;2.53;1.48;;;;;;;;;;4994779;28;20030;-57
2024/03/18 07:39:45;;;;;;;4.00;2.28;;;;;;;;;;4993497;28;20074;-57
2024/03/18 07:42:11;;;;;;;3.97;2.80;;;;;;;;;;4994638;28;20455;-57
2024/03/18 07:44:40;;;;;;;1.80;1.70;;;;;;;;;;4993376;28;20444;-57
2024/03/18 07:47:06;;;;;;;1.63;1.52;;;;;;;;;;4994909;28;20065;-58
2024/03/18 07:49:32;;;;;;;1.80;1.52;;;;;;;;;;4994572;28;20065;-58
2024/03/18 07:51:58;;;;;;;3.45;3.15;;;;;;;;;;4994532;28;20030;-57
2024/03/18 07:54:23;;;;;;;2.15;1.90;;;;;;;;;;4992529;28;20038;-57
2024/03/18 07:56:49;;;;;;;3.00;2.80;;;;;;;;;;4994437;28;20029;-57
2024/03/18 07:59:14;;;;;;;2.85;2.65;;;;;;;;;;4994384;28;20385;-57
2024/03/18 08:01:40;;;;;;;2.55;2.35;;;;;;;;;;4994399;28;20038;-57
2024/03/18 08:04:05;;;;;;;2.58;2.08;;;;;;;;;;4994361;28;20033;-57
2024/03/18 08:06:31;;;;;;;2.22;2.08;;;;;;;;;;4994358;28;20419;-57
2024/03/18 08:08:56;;;;;;;2.65;2.40;;;;;;;;;;4994147;28;20043;-57
2024/03/18 08:11:22;;;;;;;2.55;2.35;;;;;;;;;;4994328;28;20062;-57
2024/03/18 08:13:47;;;;;;;2.58;2.20;;;;;;;;;;4994275;28;20385;-57
2024/03/18 08:16:13;;;;;;;2.17;2.08;;;;;;;;;;4994239;28;20084;-57
2024/03/18 08:18:39;;;;;;;2.50;2.25;;;;;;;;;;4977010;28;20041;-57
2024/03/18 08:21:04;;;;;;;3.25;2.65;;;;;;;;;;4994367;28;20035;-57
2024/03/18 08:23:30;;;;;;;3.55;3.13;;;;;;;;;;4993196;28;20027;-57
2024/03/18 08:25:55;;;;;;;1.98;1.88;;;;;;;;;;4994451;28;20034;-57
2024/03/18 08:28:21;;;;;;;3.53;3.08;;;;;;;;;;4994387;28;20026;-57
2024/03/18 08:30:46;;;;;;;2.58;2.30;;;;;;;;;;4994387;28;20077;-57
2024/03/18 08:33:11;;;;;;;40.97;20.85;;;;;;;;;;4994309;28;20057;-57
2024/03/18 08:35:37;;;;;;;5.75;5.20;;;;;;;;;;4994064;28;20553;-57
2024/03/18 08:38:03;;;;;;;2.58;2.38;;;;;;;;;;4994590;28;20027;-58
2024/03/18 08:40:28;;;;;;;1.88;1.77;;;;;;;;;;4993987;28;20034;-57
2024/03/18 08:42:53;;;;;;;2.03;1.60;;;;;;;;;;4994543;28;20031;-57
2024/03/18 08:45:19;;;;;;;1.50;1.40;;;;;;;;;;4994593;28;20037;-58
2024/03/18 08:47:45;;;;;;;3.13;2.30;;;;;;;;;;4993989;28;20030;-57
2024/03/18 08:50:10;;;;;;;1.92;1.83;;;;;;;;;;4993920;28;20113;-57
2024/03/18 08:52:39;;;;;;;2.25;2.15;;;;;;;;;;4992765;28;20105;-57
2024/03/18 08:55:05;;;;;;;3.63;2.38;;;;;;;;;;4994189;28;20038;-57
2024/03/18 08:57:31;;;;;;;2.17;1.98;;;;;;;;;;4992645;28;20053;-57
2024/03/18 08:59:56;;;;;;;2.05;1.92;;;;;;;;;;4992690;28;20492;-57
2024/03/18 09:02:21;;;;;;;2.65;1.92;;;;;;;;;;4994121;28;20034;-57
2024/03/18 09:04:47;;;;;;;2.55;1.98;;;;;;;;;;4994226;28;20030;-57
2024/03/18 09:07:12;;;;;;;2.10;1.73;;;;;;;;;;4980584;28;20115;-58
2024/03/18 09:09:38;;;;;;;2.22;2.03;;;;;;;;;;4997274;28;20496;-57
2024/03/18 09:12:04;;;;;;;2.53;2.15;;;;;;;;;;4997683;28;20037;-57
2024/03/18 09:14:29;;;;;;;2.13;2.03;;;;;;;;;;4997946;28;20465;-57
2024/03/18 09:16:55;;;;;;;3.38;3.03;;;;;;;;;;4997336;28;20080;-57
2024/03/18 09:19:21;;;;;;;3.08;2.88;;;;;;;;;;4997204;28;20106;-58
2024/03/18 09:21:47;;;;;;;5.30;4.90;;;;;;;;;;4997786;28;20359;-57
2024/03/18 09:24:14;;;;;;;3.15;2.55;;;;;;;;;;4997221;28;20030;-57
2024/03/18 09:26:39;;;;;;;2.92;2.72;;;;;;;;;;4997201;28;20019;-57
2024/03/18 09:29:04;;;;;;;2.35;2.15;;;;;;;;;;4997402;28;20384;-57
2024/03/18 09:31:30;;;;;;;2.33;2.13;;;;;;;;;;4996181;28;20076;-58
2024/03/18 09:33:56;;;;;;;3.95;3.65;;;;;;;;;;4997036;28;20105;-58
2024/03/18 09:36:22;;;;;;;2.80;2.60;;;;;;;;;;4996984;28;20431;-58
2024/03/18 09:38:48;;;;;;;5.93;4.97;;;;;;;;;;4997250;28;20034;-58
2024/03/18 09:41:17;;;;;;;5.10;3.20;;;;;;;;;;4996113;28;20036;-58
2024/03/18 09:43:43;;;;;;;7.25;4.90;;;;;;;;;;4997132;28;20081;-58
2024/03/18 09:46:09;;;;;;;2.47;2.15;;;;;;;;;;4996739;28;20058;-58
2024/03/18 09:48:35;;;;;;;2.75;2.55;;;;;;;;;;4996737;28;20030;-58
2024/03/18 09:51:00;;;;;;;2.15;2.05;;;;;;;;;;4996961;28;20030;-57
2024/03/18 09:53:31;;;;;;;3.55;3.20;;;;;;;;;;4996941;28;20038;-58
2024/03/18 09:55:57;;;;;;;2.65;2.45;;;;;;;;;;4996897;28;20034;-58
2024/03/18 09:58:24;;;;;;;2.90;2.67;;;;;;;;;;4996850;28;20034;-57
2024/03/18 10:00:50;;;;;;;5.20;4.07;;;;;;;;;;4996451;28;20425;-57
2024/03/18 10:03:16;;;;;;;3.92;3.63;;;;;;;;;;4996479;28;20034;-58
2024/03/18 10:05:42;;;;;;;6.75;3.75;;;;;;;;;;4995183;28;20030;-58
2024/03/18 10:08:08;;;;;;;7.43;6.22;;;;;;;;;;4996468;28;20131;-57
2024/03/18 10:10:34;;;;;;;10.68;5.45;;;;;;;;;;4996333;28;20038;-57
2024/03/18 10:12:59;;;;;;;13.18;7.05;;;;;;;;;;4996580;28;20042;-57
2024/03/18 10:15:26;;;;;;;7.65;5.10;;;;;;;;;;4996531;28;20053;-57
2024/03/18 10:17:52;;;;;;;11.85;5.72;;;;;;;;;;4995601;28;20045;-57
2024/03/18 10:20:19;;;;;;;3.40;3.10;;;;;;;;;;4996108;28;20030;-57
2024/03/18 10:22:46;;;;;;;3.33;2.40;;;;;;;;;;4994981;28;20436;-57
2024/03/18 10:25:13;;;;;;;2.30;2.13;;;;;;;;;;4996370;28;20380;-57
2024/03/18 10:27:39;;;;;;;2.92;2.22;;;;;;;;;;4996322;28;20026;-57
2024/03/18 10:30:04;;;;;;;1.92;1.83;;;;;;;;;;4996492;28;20034;-57
2024/03/18 10:32:31;;;;;;;1.80;1.70;;;;;;;;;;4995961;28;20499;-57
2024/03/18 10:35:02;;;;;;;2.30;2.08;;;;;;;;;;4995310;28;20040;-57
2024/03/18 10:37:28;;;;;;;2.40;2.20;;;;;;;;;;4995816;28;20026;-58
2024/03/18 10:40:15;;;;;;;2.00;1.80;;;;;;;;;;4996262;28;20034;-57
2024/03/18 10:42:44;;;;;;;1.90;1.80;;;;;;;;;;4996004;28;20031;-57
2024/03/18 10:45:16;;;;;;;2.35;1.60;;;;;;;;;;4995991;28;20475;-61
2024/03/18 10:47:42;;;;;;;2.63;1.77;;;;;;;;;;5059595;22;20452;-62
2024/03/18 10:50:17;;;;;;;1.88;1.67;;;;;;;;;;5074841;28;20028;-62
2024/03/18 10:52:43;;;;;;;1.60;1.50;;;;;;;;;;5056950;28;20044;-62
2024/03/18 10:55:19;;;;;;;1.80;1.65;;;;;;;;;;5074741;28;20033;-62
2024/03/18 10:57:50;;;;;;;1.58;1.48;;;;;;;;;;5074967;28;20069;-62
2024/03/18 11:00:18;;;;;;;2.33;1.75;;;;;;;;;;5075155;28;20037;-62
2024/03/18 11:02:59;;;;;;;1.98;1.88;;;;;;;;;;5075126;28;20439;-62
2024/03/18 11:05:26;;;;;;;1.65;1.55;;;;;;;;;;5074848;28;20039;-62
2024/03/18 11:08:01;;;;;;;4.15;2.60;;;;;;;;;;5074795;28;20112;-62
2024/03/18 11:10:27;;;;;;;2.20;2.00;;;;;;;;;;5074768;28;20044;-62
2024/03/18 11:12:52;;;;;;;2.30;2.13;;;;;;;;;;5074702;28;20028;-62
2024/03/18 11:15:18;;;;;;;1.73;1.63;;;;;;;;;;5074352;28;20493;-62
2024/03/18 11:17:48;;;;;;;2.03;1.92;;;;;;;;;;5074351;28;20035;-62
2024/03/18 11:20:20;;;;;;;2.05;1.92;;;;;;;;;;5074796;28;20029;-62
2024/03/18 11:22:54;;;;;;;2.00;1.90;;;;;;;;;;5074510;28;20067;-62
2024/03/18 11:25:22;;;;;;;2.45;1.85;;;;;;;;;;5074502;28;20037;-62
2024/03/18 11:27:48;;;;;;;2.10;1.92;;;;;;;;;;5074032;28;20036;-62
2024/03/18 11:30:27;;;;;;;1.83;1.73;;;;;;;;;;5074130;28;20395;-62
2024/03/18 11:32:53;;;;;;;2.95;1.90;;;;;;;;;;5074364;28;20055;-62
2024/03/18 11:35:18;;;;;;;2.20;2.10;;;;;;;;;;5056250;28;20470;-62
2024/03/18 11:37:47;;;;;;;2.08;1.98;;;;;;;;;;5074299;28;20371;-62
2024/03/18 11:40:20;;;;;;;2.22;2.03;;;;;;;;;;5074204;28;20029;-62
2024/03/18 11:42:46;;;;;;;2.25;2.10;;;;;;;;;;5073952;28;20032;-62
2024/03/18 11:45:19;;;;;;;2.97;2.67;;;;;;;;;;5055957;28;20024;-62
2024/03/18 11:47:45;;;;;;;2.90;2.63;;;;;;;;;;5062077;28;20048;-57
2024/03/18 11:50:12;;;;;;;2.53;2.35;;;;;;;;;;5035978;28;20025;-57
2024/03/18 11:52:38;;;;;;;2.60;2.40;;;;;;;;;;5036344;28;20044;-57
2024/03/18 11:55:04;;;;;;;2.80;2.60;;;;;;;;;;5054352;28;20028;-57
2024/03/18 11:57:30;;;;;;;1.85;1.75;;;;;;;;;;5053712;28;20029;-56
2024/03/18 11:59:56;;;;;;;1.63;1.52;;;;;;;;;;5054447;28;20130;-56
2024/03/18 12:02:22;;;;;;;2.03;1.92;;;;;;;;;;5035764;28;20478;-57
2024/03/18 12:04:47;;;;;;;2.40;2.20;;;;;;;;;;5053636;28;20059;-57
2024/03/18 12:07:12;;;;;;;2.10;2.00;;;;;;;;;;5053890;28;20458;-57
2024/03/18 12:09:38;;;;;;;2.30;2.10;;;;;;;;;;5053879;28;20040;-57
2024/03/18 12:12:05;;;;;;;2.42;2.33;;;;;;;;;;5035739;28;20040;-57
2024/03/18 12:14:31;;;;;;;3.13;2.85;;;;;;;;;;5053764;28;20025;-57
2024/03/18 12:16:57;;;;;;;3.25;2.95;;;;;;;;;;5053785;28;20037;-57
2024/03/18 12:19:23;;;;;;;2.42;2.22;;;;;;;;;;5053433;28;20040;-57
2024/03/18 12:21:48;;;;;;;2.22;1.92;;;;;;;;;;5035662;28;20025;-57
2024/03/18 12:29:42;;;;;;;2.15;2.05;;;;;;;;;;5035481;28;20037;-58
2024/03/18 12:32:12;;;;;;;3.38;2.13;;;;;;;;;;5053905;28;20021;-57
2024/03/18 12:34:37;;;;;;;2.55;2.35;;;;;;;;;;5053661;28;20039;-57
2024/03/18 12:37:03;;;;;;;12.35;8.30;;;;;;;;;;5053612;28;20120;-57
2024/03/18 12:39:29;;;;;;;3.88;3.63;;;;;;;;;;5053737;28;20515;-58
2024/03/18 12:42:00;;;;;;;6.07;5.53;;;;;;;;;;5057150;28;20025;-57
2024/03/18 12:44:26;;;;;;;129.13;73.63;;;;;;;;;;5057174;28;20033;-57
2024/03/18 12:46:51;;;;;;;78.95;58.55;;;;;;;;;;5056907;28;20044;-58
2024/03/18 12:49:17;;;;;;;3.60;3.30;;;;;;;;;;5057062;28;20036;-57
2024/03/18 12:51:42;;;;;;;3.40;3.10;;;;;;;;;;5057098;28;20025;-58
2024/03/18 12:54:08;;;;;;;4.50;2.95;;;;;;;;;;5057349;28;20379;-58
2024/03/18 12:56:35;;;;;;;3.63;2.78;;;;;;;;;;5057076;28;20032;-61
2024/03/18 12:59:01;;;;;;;3.10;2.80;;;;;;;;;;5057407;28;20063;-61
2024/03/18 13:01:27;;;;;;;2.28;2.17;;;;;;;;;;5057165;28;20064;-62
2024/03/18 13:03:52;;;;;;;2.70;2.53;;;;;;;;;;5057173;28;20051;-62
2024/03/18 13:06:18;;;;;;;2.85;2.65;;;;;;;;;;5039380;28;20029;-62
2024/03/18 13:08:44;;;;;;;2.35;2.25;;;;;;;;;;5039606;28;20025;-62
2024/03/18 13:11:13;;;;;;;2.85;2.65;;;;;;;;;;5056818;28;20029;-62
2024/03/18 13:13:43;;;;;;;2.95;2.75;;;;;;;;;;5038964;28;20017;-62
2024/03/18 13:16:09;;;;;;;2.58;2.38;;;;;;;;;;5056665;28;20131;-62
2024/03/18 13:18:35;;;;;;;2.60;2.40;;;;;;;;;;5038766;28;20033;-62
2024/03/18 13:21:02;;;;;;;3.88;1.90;;;;;;;;;;5038608;28;20040;-62
2024/03/18 13:23:32;;;;;;;2.50;2.30;;;;;;;;;;5057100;28;20096;-62
2024/03/18 13:25:59;;;;;;;2.22;1.98;;;;;;;;;;5022166;28;20116;-62
2024/03/18 13:28:25;;;;;;;2.55;2.35;;;;;;;;;;5038593;28;20024;-62
2024/03/18 13:30:51;;;;;;;2.30;2.20;;;;;;;;;;5056702;28;20083;-62
2024/03/18 13:33:17;;;;;;;2.40;2.20;;;;;;;;;;5056702;28;20120;-61
2024/03/18 13:35:43;;;;;;;2.20;2.10;;;;;;;;;;5056633;28;20033;-62
2024/03/18 13:38:08;;;;;;;2.50;2.25;;;;;;;;;;5056585;28;20063;-62
2024/03/18 13:40:34;;;;;;;3.47;2.30;;;;;;;;;;5056184;28;20025;-61
2024/03/18 13:43:00;;;;;;;2.58;2.38;;;;;;;;;;5055499;28;20033;-61
2024/03/18 13:45:25;;;;;;;2.90;2.58;;;;;;;;;;5038503;28;20032;-61
2024/03/18 13:47:54;;;;;;;6.57;4.60;;;;;;;;;;5055036;28;20044;-61
2024/03/18 13:50:24;;;;;;;3.53;3.20;;;;;;;;;;5056298;28;20098;-61
2024/03/18 13:52:52;;;;;;;5.85;4.25;;;;;;;;;;5054675;28;20036;-61
2024/03/18 13:55:19;;;;;;;6.05;4.38;;;;;;;;;;5055825;28;20036;-61
2024/03/18 13:57:47;;;;;;;16.25;10.43;;;;;;;;;;5036528;28;20032;-61
2024/03/18 14:00:14;;;;;;;25.50;13.50;;;;;;;;;;5054757;28;20033;-61
2024/03/18 14:02:41;;;;;;;7.63;5.35;;;;;;;;;;5056062;28;20414;-61
2024/03/18 14:05:07;;;;;;;2.95;2.63;;;;;;;;;;5056200;28;20025;-61
2024/03/18 14:07:33;;;;;;;4.95;3.85;;;;;;;;;;5071305;23;20062;-61
2024/03/18 14:09:59;;;;;;;8.38;6.80;;;;;;;;;;5064262;23;20060;-56
2024/03/18 14:15:38;;;;;;;5.20;4.47;;;;;;;;;;4984054;22;1220880;-56
2024/03/18 14:18:04;;;;;;;14.50;6.53;;;;;;;;;;5014745;28;20104;-61
2024/03/18 14:20:30;;;;;;;13.02;5.43;;;;;;;;;;5015648;28;20030;-61
2024/03/18 14:22:55;;;;;;;10.35;5.03;;;;;;;;;;5016065;28;20080;-61
2024/03/18 14:25:21;;;;;;;3.08;2.70;;;;;;;;;;5015935;28;20480;-61
2024/03/18 14:27:54;;;;;;;3.15;2.72;;;;;;;;;;4998244;28;20038;-61
2024/03/18 14:30:20;;;;;;;2.45;2.28;;;;;;;;;;5015648;28;20046;-61
2024/03/18 14:32:46;;;;;;;4.30;3.65;;;;;;;;;;4997462;28;20257;-61
2024/03/18 14:35:14;;;;;;;6.35;4.63;;;;;;;;;;4979584;28;20067;-61
2024/03/18 14:37:40;;;;;;;4.60;3.60;;;;;;;;;;5014840;28;20079;-61
2024/03/18 14:40:08;;;;;;;3.33;3.03;;;;;;;;;;5015829;28;20030;-61
2024/03/18 14:42:33;;;;;;;5.43;3.75;;;;;;;;;;5014722;28;20026;-61
2024/03/18 14:44:59;;;;;;;4.88;3.30;;;;;;;;;;4997197;28;20507;-61
2024/03/18 14:47:24;;;;;;;4.32;3.58;;;;;;;;;;4997134;28;20022;-61